sensor_id;sensor_type;location;lat;lon;timestamp;temperature;humidity
65854;DHT22;52627;48.838;2.402;2023-09-07T00:00:58;25.54;48.54
65854;DHT22;52627;48.838;2.402;2023-09-07T00:03:28;25.55;48.53
65854;DHT22;52627;48.838;2.402;2023-09-07T00:05:55;25.57;48.53
65854;DHT22;52627;48.838;2.402;2023-09-07T00:08:23;25.54;48.55
65854;DHT22;52627;48.838;2.402;2023-09-07T00:10:52;25.51;48.52
65854;DHT22;52627;48.838;2.402;2023-09-07T00:13:20;25.48;48.52
65854;DHT22;52627;48.838;2.402;2023-09-07T00:15:47;25.45;48.51
65854;DHT22;52627;48.838;2.402;2023-09-07T00:18:14;25.44;48.53
65854;DHT22;52627;48.838;2.402;2023-09-07T00:20:44;25.44;48.56
65854;DHT22;52627;48.838;2.402;2023-09-07T00:23:11;25.43;48.54
65854;DHT22;52627;48.838;2.402;2023-09-07T00:25:39;25.42;48.57
65854;DHT22;52627;48.838;2.402;2023-09-07T00:28:06;25.41;48.59
65854;DHT22;52627;48.838;2.402;2023-09-07T00:30:34;25.39;48.64
65854;DHT22;52627;48.838;2.402;2023-09-07T00:33:01;25.38;48.61
65854;DHT22;52627;48.838;2.402;2023-09-07T00:35:29;25.36;48.63
65854;DHT22;52627;48.838;2.402;2023-09-07T00:37:56;25.32;48.73
65854;DHT22;52627;48.838;2.402;2023-09-07T00:40:24;25.28;48.80
65854;DHT22;52627;48.838;2.402;2023-09-07T00:42:53;25.24;48.81
65854;DHT22;52627;48.838;2.402;2023-09-07T00:45:21;25.19;48.86
65854;DHT22;52627;48.838;2.402;2023-09-07T00:47:48;25.16;48.90
65854;DHT22;52627;48.838;2.402;2023-09-07T00:50:16;25.14;48.95
65854;DHT22;52627;48.838;2.402;2023-09-07T00:52:43;25.09;49.04
65854;DHT22;52627;48.838;2.402;2023-09-07T00:55:11;25.06;49.17
65854;DHT22;52627;48.838;2.402;2023-09-07T00:57:40;25.03;49.28
65854;DHT22;52627;48.838;2.402;2023-09-07T01:00:10;25.01;49.31
65854;DHT22;52627;48.838;2.402;2023-09-07T01:02:39;25.00;49.40
65854;DHT22;52627;48.838;2.402;2023-09-07T01:05:06;24.99;49.38
65854;DHT22;52627;48.838;2.402;2023-09-07T01:07:39;24.96;49.30
65854;DHT22;52627;48.838;2.402;2023-09-07T01:10:10;24.94;49.32
65854;DHT22;52627;48.838;2.402;2023-09-07T01:12:37;24.93;49.34
65854;DHT22;52627;48.838;2.402;2023-09-07T01:15:05;24.92;49.39
65854;DHT22;52627;48.838;2.402;2023-09-07T01:17:33;24.91;49.45
65854;DHT22;52627;48.838;2.402;2023-09-07T01:20:04;24.91;49.49
65854;DHT22;52627;48.838;2.402;2023-09-07T01:22:33;24.90;49.50
65854;DHT22;52627;48.838;2.402;2023-09-07T01:25:01;24.89;49.50
65854;DHT22;52627;48.838;2.402;2023-09-07T01:27:29;24.85;49.53
65854;DHT22;52627;48.838;2.402;2023-09-07T01:29:57;24.82;49.59
65854;DHT22;52627;48.838;2.402;2023-09-07T01:32:24;24.82;49.60
65854;DHT22;52627;48.838;2.402;2023-09-07T01:34:54;24.80;49.69
65854;DHT22;52627;48.838;2.402;2023-09-07T01:37:23;24.80;49.70
65854;DHT22;52627;48.838;2.402;2023-09-07T01:39:51;24.78;49.72
65854;DHT22;52627;48.838;2.402;2023-09-07T01:42:18;24.73;49.74
65854;DHT22;52627;48.838;2.402;2023-09-07T01:44:45;24.71;49.77
65854;DHT22;52627;48.838;2.402;2023-09-07T01:47:13;24.69;49.79
65854;DHT22;52627;48.838;2.402;2023-09-07T01:49:40;24.68;49.85
65854;DHT22;52627;48.838;2.402;2023-09-07T01:52:08;24.66;49.96
65854;DHT22;52627;48.838;2.402;2023-09-07T01:54:35;24.64;50.07
65854;DHT22;52627;48.838;2.402;2023-09-07T01:57:03;24.62;50.11
65854;DHT22;52627;48.838;2.402;2023-09-07T01:59:30;24.61;50.18
65854;DHT22;52627;48.838;2.402;2023-09-07T02:01:58;24.59;50.26
65854;DHT22;52627;48.838;2.402;2023-09-07T02:04:25;24.58;50.30
65854;DHT22;52627;48.838;2.402;2023-09-07T02:06:53;24.56;50.31
65854;DHT22;52627;48.838;2.402;2023-09-07T02:09:20;24.55;50.36
65854;DHT22;52627;48.838;2.402;2023-09-07T02:11:47;24.54;50.36
65854;DHT22;52627;48.838;2.402;2023-09-07T02:14:15;24.52;50.42
65854;DHT22;52627;48.838;2.402;2023-09-07T02:16:43;24.49;50.45
65854;DHT22;52627;48.838;2.402;2023-09-07T02:19:10;24.48;50.32
65854;DHT22;52627;48.838;2.402;2023-09-07T02:21:38;24.46;50.31
65854;DHT22;52627;48.838;2.402;2023-09-07T02:24:05;24.44;50.30
65854;DHT22;52627;48.838;2.402;2023-09-07T02:26:33;24.38;50.30
65854;DHT22;52627;48.838;2.402;2023-09-07T02:29:00;24.33;50.34
65854;DHT22;52627;48.838;2.402;2023-09-07T02:31:30;24.27;50.40
65854;DHT22;52627;48.838;2.402;2023-09-07T02:33:57;24.25;50.46
65854;DHT22;52627;48.838;2.402;2023-09-07T02:36:25;24.22;50.49
65854;DHT22;52627;48.838;2.402;2023-09-07T02:38:52;24.22;50.50
65854;DHT22;52627;48.838;2.402;2023-09-07T02:41:20;24.21;50.51
65854;DHT22;52627;48.838;2.402;2023-09-07T02:43:47;24.21;50.57
65854;DHT22;52627;48.838;2.402;2023-09-07T02:46:14;24.20;50.63
65854;DHT22;52627;48.838;2.402;2023-09-07T02:48:43;24.20;50.66
65854;DHT22;52627;48.838;2.402;2023-09-07T02:51:11;24.18;50.70
65854;DHT22;52627;48.838;2.402;2023-09-07T02:53:38;24.18;50.70
65854;DHT22;52627;48.838;2.402;2023-09-07T02:56:06;24.16;50.70
65854;DHT22;52627;48.838;2.402;2023-09-07T02:58:35;24.16;50.74
65854;DHT22;52627;48.838;2.402;2023-09-07T03:01:07;24.15;50.78
65854;DHT22;52627;48.838;2.402;2023-09-07T03:03:38;24.14;50.81
65854;DHT22;52627;48.838;2.402;2023-09-07T03:06:12;24.13;50.80
65854;DHT22;52627;48.838;2.402;2023-09-07T03:08:40;24.12;50.80
65854;DHT22;52627;48.838;2.402;2023-09-07T03:11:08;24.10;50.81
65854;DHT22;52627;48.838;2.402;2023-09-07T03:13:36;24.09;50.87
65854;DHT22;52627;48.838;2.402;2023-09-07T03:16:04;24.08;50.96
65854;DHT22;52627;48.838;2.402;2023-09-07T03:18:32;24.08;50.93
65854;DHT22;52627;48.838;2.402;2023-09-07T03:21:01;24.06;51.00
65854;DHT22;52627;48.838;2.402;2023-09-07T03:23:29;24.04;51.02
65854;DHT22;52627;48.838;2.402;2023-09-07T03:25:58;24.02;51.10
65854;DHT22;52627;48.838;2.402;2023-09-07T03:28:26;23.98;51.13
65854;DHT22;52627;48.838;2.402;2023-09-07T03:30:54;23.95;51.20
65854;DHT22;52627;48.838;2.402;2023-09-07T03:33:22;23.95;51.28
65854;DHT22;52627;48.838;2.402;2023-09-07T03:35:50;23.94;51.30
65854;DHT22;52627;48.838;2.402;2023-09-07T03:38:19;23.93;51.33
65854;DHT22;52627;48.838;2.402;2023-09-07T03:40:46;23.92;51.39
65854;DHT22;52627;48.838;2.402;2023-09-07T03:43:13;23.92;51.50
65854;DHT22;52627;48.838;2.402;2023-09-07T03:45:41;23.90;51.54
65854;DHT22;52627;48.838;2.402;2023-09-07T03:48:08;23.86;51.64
65854;DHT22;52627;48.838;2.402;2023-09-07T03:50:37;23.83;51.70
65854;DHT22;52627;48.838;2.402;2023-09-07T03:53:04;23.82;51.79
65854;DHT22;52627;48.838;2.402;2023-09-07T03:55:39;23.78;51.87
65854;DHT22;52627;48.838;2.402;2023-09-07T03:58:11;23.76;51.93
65854;DHT22;52627;48.838;2.402;2023-09-07T04:00:39;23.75;51.99
65854;DHT22;52627;48.838;2.402;2023-09-07T04:03:08;23.74;52.08
65854;DHT22;52627;48.838;2.402;2023-09-07T04:05:39;23.71;52.15
65854;DHT22;52627;48.838;2.402;2023-09-07T04:08:06;23.69;52.22
65854;DHT22;52627;48.838;2.402;2023-09-07T04:10:37;23.67;52.31
65854;DHT22;52627;48.838;2.402;2023-09-07T04:13:05;23.66;52.37
65854;DHT22;52627;48.838;2.402;2023-09-07T04:15:34;23.64;52.41
65854;DHT22;52627;48.838;2.402;2023-09-07T04:18:03;23.62;52.54
65854;DHT22;52627;48.838;2.402;2023-09-07T04:20:31;23.59;52.61
65854;DHT22;52627;48.838;2.402;2023-09-07T04:22:58;23.57;52.65
65854;DHT22;52627;48.838;2.402;2023-09-07T04:25:26;23.54;52.77
65854;DHT22;52627;48.838;2.402;2023-09-07T04:27:53;23.50;52.82
65854;DHT22;52627;48.838;2.402;2023-09-07T04:30:21;23.49;52.89
65854;DHT22;52627;48.838;2.402;2023-09-07T04:32:48;23.46;52.93
65854;DHT22;52627;48.838;2.402;2023-09-07T04:35:16;23.42;53.02
65854;DHT22;52627;48.838;2.402;2023-09-07T04:37:43;23.41;53.10
65854;DHT22;52627;48.838;2.402;2023-09-07T04:40:11;23.37;53.18
65854;DHT22;52627;48.838;2.402;2023-09-07T04:42:39;23.34;53.24
65854;DHT22;52627;48.838;2.402;2023-09-07T04:45:07;23.32;53.31
65854;DHT22;52627;48.838;2.402;2023-09-07T04:47:34;23.29;53.38
65854;DHT22;52627;48.838;2.402;2023-09-07T04:50:04;23.28;53.45
65854;DHT22;52627;48.838;2.402;2023-09-07T04:52:33;23.26;53.52
65854;DHT22;52627;48.838;2.402;2023-09-07T04:55:02;23.22;53.59
65854;DHT22;52627;48.838;2.402;2023-09-07T04:57:30;23.19;53.65
65854;DHT22;52627;48.838;2.402;2023-09-07T04:59:58;23.14;53.71
65854;DHT22;52627;48.838;2.402;2023-09-07T05:02:25;23.11;53.77
65854;DHT22;52627;48.838;2.402;2023-09-07T05:04:52;23.08;53.86
65854;DHT22;52627;48.838;2.402;2023-09-07T05:07:20;23.06;53.90
65854;DHT22;52627;48.838;2.402;2023-09-07T05:09:47;23.05;53.99
65854;DHT22;52627;48.838;2.402;2023-09-07T05:12:16;23.04;54.04
65854;DHT22;52627;48.838;2.402;2023-09-07T05:14:46;23.03;54.11
65854;DHT22;52627;48.838;2.402;2023-09-07T05:17:13;23.00;54.22
65854;DHT22;52627;48.838;2.402;2023-09-07T05:19:41;22.96;54.30
65854;DHT22;52627;48.838;2.402;2023-09-07T05:22:10;22.95;54.33
65854;DHT22;52627;48.838;2.402;2023-09-07T05:24:38;22.94;54.43
65854;DHT22;52627;48.838;2.402;2023-09-07T05:27:08;22.93;54.50
65854;DHT22;52627;48.838;2.402;2023-09-07T05:29:35;22.92;54.55
65854;DHT22;52627;48.838;2.402;2023-09-07T05:32:03;22.91;54.60
65854;DHT22;52627;48.838;2.402;2023-09-07T05:34:31;22.89;54.65
65854;DHT22;52627;48.838;2.402;2023-09-07T05:36:58;22.91;54.69
65854;DHT22;52627;48.838;2.402;2023-09-07T05:39:26;22.92;54.74
65854;DHT22;52627;48.838;2.402;2023-09-07T05:41:53;22.92;54.78
65854;DHT22;52627;48.838;2.402;2023-09-07T05:44:21;22.91;54.83
65854;DHT22;52627;48.838;2.402;2023-09-07T05:46:48;22.91;54.89
65854;DHT22;52627;48.838;2.402;2023-09-07T05:49:16;22.92;54.90
65854;DHT22;52627;48.838;2.402;2023-09-07T05:51:43;22.91;54.95
65854;DHT22;52627;48.838;2.402;2023-09-07T05:54:11;22.91;55.01
65854;DHT22;52627;48.838;2.402;2023-09-07T05:56:38;22.90;55.06
65854;DHT22;52627;48.838;2.402;2023-09-07T05:59:06;22.90;55.11
65854;DHT22;52627;48.838;2.402;2023-09-07T06:01:34;22.93;55.17
65854;DHT22;52627;48.838;2.402;2023-09-07T06:04:02;22.94;55.22
65854;DHT22;52627;48.838;2.402;2023-09-07T06:06:30;22.91;55.30
65854;DHT22;52627;48.838;2.402;2023-09-07T06:08:57;22.91;55.35
65854;DHT22;52627;48.838;2.402;2023-09-07T06:11:28;22.89;55.41
65854;DHT22;52627;48.838;2.402;2023-09-07T06:13:58;22.91;55.45
65854;DHT22;52627;48.838;2.402;2023-09-07T06:16:25;22.95;55.49
65854;DHT22;52627;48.838;2.402;2023-09-07T06:18:53;22.97;55.50
65854;DHT22;52627;48.838;2.402;2023-09-07T06:21:20;22.98;55.49
65854;DHT22;52627;48.838;2.402;2023-09-07T06:23:48;23.00;55.51
65854;DHT22;52627;48.838;2.402;2023-09-07T06:26:15;23.01;55.55
65854;DHT22;52627;48.838;2.402;2023-09-07T06:28:44;23.03;55.55
65854;DHT22;52627;48.838;2.402;2023-09-07T06:31:12;23.06;55.55
65854;DHT22;52627;48.838;2.402;2023-09-07T06:33:42;23.08;55.53
65854;DHT22;52627;48.838;2.402;2023-09-07T06:36:09;23.09;55.53
65854;DHT22;52627;48.838;2.402;2023-09-07T06:38:37;23.10;55.52
65854;DHT22;52627;48.838;2.402;2023-09-07T06:41:04;23.11;55.58
65854;DHT22;52627;48.838;2.402;2023-09-07T06:43:32;23.14;55.55
65854;DHT22;52627;48.838;2.402;2023-09-07T06:46:05;23.15;55.59
65854;DHT22;52627;48.838;2.402;2023-09-07T06:48:35;23.18;55.60
65854;DHT22;52627;48.838;2.402;2023-09-07T06:51:03;23.19;55.54
65854;DHT22;52627;48.838;2.402;2023-09-07T06:53:31;23.20;55.57
65854;DHT22;52627;48.838;2.402;2023-09-07T06:56:19;23.21;55.58
65854;DHT22;52627;48.838;2.402;2023-09-07T06:58:46;23.15;55.62
65854;DHT22;52627;48.838;2.402;2023-09-07T07:01:14;23.12;55.70
65854;DHT22;52627;48.838;2.402;2023-09-07T07:03:42;23.17;55.70
65854;DHT22;52627;48.838;2.402;2023-09-07T07:06:10;23.13;55.68
65854;DHT22;52627;48.838;2.402;2023-09-07T07:08:37;23.08;55.81
65854;DHT22;52627;48.838;2.402;2023-09-07T07:11:05;23.06;55.88
65854;DHT22;52627;48.838;2.402;2023-09-07T07:13:32;23.10;55.96
65854;DHT22;52627;48.838;2.402;2023-09-07T07:15:59;23.16;55.90
65854;DHT22;52627;48.838;2.402;2023-09-07T07:18:27;23.20;55.95
65854;DHT22;52627;48.838;2.402;2023-09-07T07:20:55;23.29;55.91
65854;DHT22;52627;48.838;2.402;2023-09-07T07:23:22;23.34;55.88
65854;DHT22;52627;48.838;2.402;2023-09-07T07:25:50;23.39;55.80
65854;DHT22;52627;48.838;2.402;2023-09-07T07:28:19;23.47;55.81
65854;DHT22;52627;48.838;2.402;2023-09-07T07:30:47;23.58;55.72
65854;DHT22;52627;48.838;2.402;2023-09-07T07:33:15;23.72;55.68
65854;DHT22;52627;48.838;2.402;2023-09-07T07:35:42;23.91;55.60
65854;DHT22;52627;48.838;2.402;2023-09-07T07:38:10;24.14;55.43
65854;DHT22;52627;48.838;2.402;2023-09-07T07:40:40;24.37;55.21
65854;DHT22;52627;48.838;2.402;2023-09-07T07:43:09;24.63;55.02
65854;DHT22;52627;48.838;2.402;2023-09-07T07:45:38;24.88;54.66
65854;DHT22;52627;48.838;2.402;2023-09-07T07:48:05;25.10;54.37
65854;DHT22;52627;48.838;2.402;2023-09-07T07:50:38;25.39;54.04
65854;DHT22;52627;48.838;2.402;2023-09-07T07:53:08;25.70;53.65
65854;DHT22;52627;48.838;2.402;2023-09-07T07:55:36;26.00;53.11
65854;DHT22;52627;48.838;2.402;2023-09-07T07:58:06;26.32;52.81
65854;DHT22;52627;48.838;2.402;2023-09-07T08:00:37;26.66;52.19
65854;DHT22;52627;48.838;2.402;2023-09-07T08:03:05;27.01;51.95
65854;DHT22;52627;48.838;2.402;2023-09-07T08:05:34;27.59;51.52
65854;DHT22;52627;48.838;2.402;2023-09-07T08:08:03;28.13;50.26
65854;DHT22;52627;48.838;2.402;2023-09-07T08:10:36;28.50;49.74
65854;DHT22;52627;48.838;2.402;2023-09-07T08:13:04;29.04;49.27
65854;DHT22;52627;48.838;2.402;2023-09-07T08:15:32;29.57;48.09
65854;DHT22;52627;48.838;2.402;2023-09-07T08:18:00;30.08;47.71
65854;DHT22;52627;48.838;2.402;2023-09-07T08:20:28;30.69;46.79
65854;DHT22;52627;48.838;2.402;2023-09-07T08:24:38;31.76;45.79
65854;DHT22;52627;48.838;2.402;2023-09-07T08:27:07;32.38;44.97
65854;DHT22;52627;48.838;2.402;2023-09-07T08:29:38;32.69;43.55
65854;DHT22;52627;48.838;2.402;2023-09-07T08:32:05;32.88;42.91
65854;DHT22;52627;48.838;2.402;2023-09-07T08:34:33;33.13;42.30
65854;DHT22;52627;48.838;2.402;2023-09-07T08:37:05;33.44;41.33
65854;DHT22;52627;48.838;2.402;2023-09-07T08:39:35;33.80;40.67
65854;DHT22;52627;48.838;2.402;2023-09-07T08:42:06;34.12;40.11
65854;DHT22;52627;48.838;2.402;2023-09-07T08:44:34;34.43;39.41
65854;DHT22;52627;48.838;2.402;2023-09-07T08:47:04;34.61;38.70
65854;DHT22;52627;48.838;2.402;2023-09-07T08:49:31;34.95;38.16
65854;DHT22;52627;48.838;2.402;2023-09-07T08:52:02;35.08;37.41
65854;DHT22;52627;48.838;2.402;2023-09-07T08:54:31;35.20;36.95
65854;DHT22;52627;48.838;2.402;2023-09-07T08:57:01;35.36;36.65
65854;DHT22;52627;48.838;2.402;2023-09-07T08:59:31;35.56;36.21
65854;DHT22;52627;48.838;2.402;2023-09-07T09:01:58;35.82;35.94
65854;DHT22;52627;48.838;2.402;2023-09-07T09:04:26;36.05;35.49
65854;DHT22;52627;48.838;2.402;2023-09-07T09:06:55;36.24;35.10
65854;DHT22;52627;48.838;2.402;2023-09-07T09:09:24;36.33;34.60
65854;DHT22;52627;48.838;2.402;2023-09-07T09:11:52;36.44;34.27
65854;DHT22;52627;48.838;2.402;2023-09-07T09:14:19;36.29;33.67
65854;DHT22;52627;48.838;2.402;2023-09-07T09:16:49;35.80;33.40
65854;DHT22;52627;48.838;2.402;2023-09-07T09:19:17;35.63;33.57
65854;DHT22;52627;48.838;2.402;2023-09-07T09:21:45;35.88;33.26
65854;DHT22;52627;48.838;2.402;2023-09-07T09:24:13;36.08;33.28
65854;DHT22;52627;48.838;2.402;2023-09-07T09:26:42;36.52;33.09
65854;DHT22;52627;48.838;2.402;2023-09-07T09:29:09;36.63;32.57
65854;DHT22;52627;48.838;2.402;2023-09-07T09:31:38;36.50;32.47
65854;DHT22;52627;48.838;2.402;2023-09-07T09:34:06;36.37;32.46
65854;DHT22;52627;48.838;2.402;2023-09-07T09:36:34;36.66;32.37
65854;DHT22;52627;48.838;2.402;2023-09-07T09:39:03;36.72;32.18
65854;DHT22;52627;48.838;2.402;2023-09-07T09:41:33;36.72;32.06
65854;DHT22;52627;48.838;2.402;2023-09-07T09:44:04;36.96;32.07
65854;DHT22;52627;48.838;2.402;2023-09-07T09:46:33;37.26;31.76
65854;DHT22;52627;48.838;2.402;2023-09-07T09:49:01;37.35;31.61
65854;DHT22;52627;48.838;2.402;2023-09-07T09:51:30;37.55;31.54
65854;DHT22;52627;48.838;2.402;2023-09-07T09:54:00;37.70;31.19
65854;DHT22;52627;48.838;2.402;2023-09-07T09:56:29;37.61;31.16
65854;DHT22;52627;48.838;2.402;2023-09-07T09:58:56;37.66;31.14
65854;DHT22;52627;48.838;2.402;2023-09-07T10:01:24;37.83;31.10
65854;DHT22;52627;48.838;2.402;2023-09-07T10:03:52;37.97;30.74
65854;DHT22;52627;48.838;2.402;2023-09-07T10:06:23;37.87;30.63
65854;DHT22;52627;48.838;2.402;2023-09-07T10:09:04;37.84;30.54
65854;DHT22;52627;48.838;2.402;2023-09-07T10:11:34;37.88;30.32
65854;DHT22;52627;48.838;2.402;2023-09-07T10:14:05;37.90;30.29
65854;DHT22;52627;48.838;2.402;2023-09-07T10:19:23;38.17;30.14
65854;DHT22;52627;48.838;2.402;2023-09-07T10:21:53;38.33;30.24
65854;DHT22;52627;48.838;2.402;2023-09-07T10:24:25;38.60;30.13
65854;DHT22;52627;48.838;2.402;2023-09-07T10:27:01;38.85;29.96
65854;DHT22;52627;48.838;2.402;2023-09-07T10:29:40;38.96;29.74
65854;DHT22;52627;48.838;2.402;2023-09-07T10:32:08;38.96;29.57
65854;DHT22;52627;48.838;2.402;2023-09-07T10:34:38;38.93;29.41
65854;DHT22;52627;48.838;2.402;2023-09-07T10:37:10;38.91;29.37
65854;DHT22;52627;48.838;2.402;2023-09-07T10:39:40;38.96;29.33
65854;DHT22;52627;48.838;2.402;2023-09-07T10:42:23;38.93;29.16
65854;DHT22;52627;48.838;2.402;2023-09-07T10:44:52;38.78;29.13
65854;DHT22;52627;48.838;2.402;2023-09-07T10:47:20;38.70;29.05
65854;DHT22;52627;48.838;2.402;2023-09-07T10:49:48;38.77;29.01
65854;DHT22;52627;48.838;2.402;2023-09-07T10:52:16;38.98;28.92
65854;DHT22;52627;48.838;2.402;2023-09-07T10:54:44;39.09;28.85
65854;DHT22;52627;48.838;2.402;2023-09-07T10:57:11;39.16;28.80
65854;DHT22;52627;48.838;2.402;2023-09-07T10:59:45;39.07;28.74
65854;DHT22;52627;48.838;2.402;2023-09-07T11:02:14;39.01;28.60
65854;DHT22;52627;48.838;2.402;2023-09-07T11:04:43;38.74;28.65
65854;DHT22;52627;48.838;2.402;2023-09-07T11:07:11;38.61;28.62
65854;DHT22;52627;48.838;2.402;2023-09-07T11:09:40;38.41;28.57
65854;DHT22;52627;48.838;2.402;2023-09-07T11:12:13;38.15;28.79
65854;DHT22;52627;48.838;2.402;2023-09-07T11:14:43;38.04;28.86
65854;DHT22;52627;48.838;2.402;2023-09-07T11:17:11;37.88;28.99
65854;DHT22;52627;48.838;2.402;2023-09-07T11:19:38;37.87;29.21
65854;DHT22;52627;48.838;2.402;2023-09-07T11:22:08;37.89;29.30
65854;DHT22;52627;48.838;2.402;2023-09-07T11:24:37;37.89;29.49
65854;DHT22;52627;48.838;2.402;2023-09-07T11:27:04;37.99;29.63
65854;DHT22;52627;48.838;2.402;2023-09-07T11:29:32;38.06;29.73
65854;DHT22;52627;48.838;2.402;2023-09-07T11:32:09;38.11;29.72
65854;DHT22;52627;48.838;2.402;2023-09-07T11:34:50;37.95;29.52
65854;DHT22;52627;48.838;2.402;2023-09-07T11:37:24;37.76;29.62
65854;DHT22;52627;48.838;2.402;2023-09-07T11:39:52;37.57;29.63
65854;DHT22;52627;48.838;2.402;2023-09-07T11:42:20;37.46;29.76
65854;DHT22;52627;48.838;2.402;2023-09-07T11:44:47;37.50;29.79
65854;DHT22;52627;48.838;2.402;2023-09-07T11:47:15;37.56;29.79
65854;DHT22;52627;48.838;2.402;2023-09-07T11:49:43;37.59;29.84
65854;DHT22;52627;48.838;2.402;2023-09-07T11:52:10;37.62;29.79
65854;DHT22;52627;48.838;2.402;2023-09-07T11:54:38;37.56;29.72
65854;DHT22;52627;48.838;2.402;2023-09-07T11:57:05;37.32;29.74
65854;DHT22;52627;48.838;2.402;2023-09-07T11:59:33;36.98;29.91
65854;DHT22;52627;48.838;2.402;2023-09-07T12:02:14;36.48;30.21
65854;DHT22;52627;48.838;2.402;2023-09-07T12:04:43;36.19;30.42
65854;DHT22;52627;48.838;2.402;2023-09-07T12:07:11;36.06;30.56
65854;DHT22;52627;48.838;2.402;2023-09-07T12:09:38;36.12;30.75
65854;DHT22;52627;48.838;2.402;2023-09-07T12:12:06;36.22;30.98
65854;DHT22;52627;48.838;2.402;2023-09-07T12:14:33;36.33;31.11
65854;DHT22;52627;48.838;2.402;2023-09-07T12:17:01;36.37;31.11
65854;DHT22;52627;48.838;2.402;2023-09-07T12:19:29;36.49;31.22
65854;DHT22;52627;48.838;2.402;2023-09-07T12:21:56;36.55;31.29
65854;DHT22;52627;48.838;2.402;2023-09-07T12:24:24;36.58;31.36
65854;DHT22;52627;48.838;2.402;2023-09-07T12:26:51;36.60;31.29
65854;DHT22;52627;48.838;2.402;2023-09-07T12:29:19;36.58;31.20
65854;DHT22;52627;48.838;2.402;2023-09-07T12:31:47;36.52;31.18
65854;DHT22;52627;48.838;2.402;2023-09-07T12:34:15;36.51;31.16
65854;DHT22;52627;48.838;2.402;2023-09-07T12:36:42;36.47;31.15
65854;DHT22;52627;48.838;2.402;2023-09-07T12:39:09;36.55;31.18
65854;DHT22;52627;48.838;2.402;2023-09-07T12:41:58;36.69;31.13
65854;DHT22;52627;48.838;2.402;2023-09-07T12:44:26;36.85;31.04
65854;DHT22;52627;48.838;2.402;2023-09-07T12:46:53;36.99;30.94
65854;DHT22;52627;48.838;2.402;2023-09-07T12:49:20;37.07;30.79
65854;DHT22;52627;48.838;2.402;2023-09-07T12:51:48;37.10;30.74
65854;DHT22;52627;48.838;2.402;2023-09-07T12:54:15;37.18;30.70
65854;DHT22;52627;48.838;2.402;2023-09-07T12:56:44;37.27;30.63
65854;DHT22;52627;48.838;2.402;2023-09-07T12:59:12;37.21;30.44
65854;DHT22;52627;48.838;2.402;2023-09-07T13:01:40;37.09;30.55
65854;DHT22;52627;48.838;2.402;2023-09-07T13:04:07;37.08;30.64
65854;DHT22;52627;48.838;2.402;2023-09-07T13:06:35;37.09;30.68
65854;DHT22;52627;48.838;2.402;2023-09-07T13:09:03;37.21;30.72
65854;DHT22;52627;48.838;2.402;2023-09-07T13:11:32;37.44;30.71
65854;DHT22;52627;48.838;2.402;2023-09-07T13:14:00;37.68;30.57
65854;DHT22;52627;48.838;2.402;2023-09-07T13:16:37;37.81;30.28
65854;DHT22;52627;48.838;2.402;2023-09-07T13:19:05;37.85;30.05
65854;DHT22;52627;48.838;2.402;2023-09-07T13:21:33;37.90;29.93
65854;DHT22;52627;48.838;2.402;2023-09-07T13:24:01;38.00;29.76
65854;DHT22;52627;48.838;2.402;2023-09-07T13:26:28;38.13;29.66
65854;DHT22;52627;48.838;2.402;2023-09-07T13:28:56;38.23;29.52
65854;DHT22;52627;48.838;2.402;2023-09-07T13:31:23;38.34;29.42
65854;DHT22;52627;48.838;2.402;2023-09-07T13:33:51;38.45;29.28
65854;DHT22;52627;48.838;2.402;2023-09-07T13:36:18;38.48;29.16
65854;DHT22;52627;48.838;2.402;2023-09-07T13:38:46;38.48;28.96
65854;DHT22;52627;48.838;2.402;2023-09-07T13:41:14;38.22;28.93
65854;DHT22;52627;48.838;2.402;2023-09-07T13:43:42;37.90;28.97
65854;DHT22;52627;48.838;2.402;2023-09-07T13:46:11;37.63;29.09
65854;DHT22;52627;48.838;2.402;2023-09-07T13:48:39;37.39;29.19
65854;DHT22;52627;48.838;2.402;2023-09-07T13:51:07;37.09;29.30
65854;DHT22;52627;48.838;2.402;2023-09-07T13:53:35;36.80;29.48
65854;DHT22;52627;48.838;2.402;2023-09-07T13:56:02;36.54;29.71
65854;DHT22;52627;48.838;2.402;2023-09-07T13:58:30;36.35;29.91
65854;DHT22;52627;48.838;2.402;2023-09-07T14:00:58;36.23;30.13
65854;DHT22;52627;48.838;2.402;2023-09-07T14:03:25;36.13;30.33
65854;DHT22;52627;48.838;2.402;2023-09-07T14:05:53;36.06;30.50
65854;DHT22;52627;48.838;2.402;2023-09-07T14:08:21;35.98;30.66
65854;DHT22;52627;48.838;2.402;2023-09-07T14:10:51;35.90;30.83
65854;DHT22;52627;48.838;2.402;2023-09-07T14:13:18;35.79;30.88
65854;DHT22;52627;48.838;2.402;2023-09-07T14:15:47;35.66;30.96
65854;DHT22;52627;48.838;2.402;2023-09-07T14:18:14;35.59;31.07
65854;DHT22;52627;48.838;2.402;2023-09-07T14:20:42;35.53;31.24
65854;DHT22;52627;48.838;2.402;2023-09-07T14:23:09;35.45;31.39
65854;DHT22;52627;48.838;2.402;2023-09-07T14:25:37;35.33;31.46
65854;DHT22;52627;48.838;2.402;2023-09-07T14:28:08;35.29;31.62
65854;DHT22;52627;48.838;2.402;2023-09-07T14:30:36;35.27;31.72
65854;DHT22;52627;48.838;2.402;2023-09-07T14:33:04;35.17;31.73
65854;DHT22;52627;48.838;2.402;2023-09-07T14:35:32;35.09;31.84
65854;DHT22;52627;48.838;2.402;2023-09-07T14:38:00;35.10;31.97
65854;DHT22;52627;48.838;2.402;2023-09-07T14:40:28;35.04;31.95
65854;DHT22;52627;48.838;2.402;2023-09-07T14:42:56;34.86;32.06
65854;DHT22;52627;48.838;2.402;2023-09-07T14:45:24;34.77;32.03
65854;DHT22;52627;48.838;2.402;2023-09-07T14:47:52;34.70;32.12
65854;DHT22;52627;48.838;2.402;2023-09-07T14:50:19;34.71;32.13
65854;DHT22;52627;48.838;2.402;2023-09-07T14:52:47;34.70;32.17
65854;DHT22;52627;48.838;2.402;2023-09-07T14:55:14;34.70;32.21
65854;DHT22;52627;48.838;2.402;2023-09-07T14:57:42;34.66;32.15
65854;DHT22;52627;48.838;2.402;2023-09-07T15:00:10;34.65;32.20
65854;DHT22;52627;48.838;2.402;2023-09-07T15:02:38;34.65;32.21
65854;DHT22;52627;48.838;2.402;2023-09-07T15:05:06;34.64;32.30
65854;DHT22;52627;48.838;2.402;2023-09-07T15:07:34;34.68;32.33
65854;DHT22;52627;48.838;2.402;2023-09-07T15:10:02;34.69;32.36
65854;DHT22;52627;48.838;2.402;2023-09-07T15:12:31;34.74;32.45
65854;DHT22;52627;48.838;2.402;2023-09-07T15:14:59;34.76;32.23
65854;DHT22;52627;48.838;2.402;2023-09-07T15:17:27;34.72;32.07
65854;DHT22;52627;48.838;2.402;2023-09-07T15:19:54;34.61;31.97
65854;DHT22;52627;48.838;2.402;2023-09-07T15:22:22;34.56;31.98
65854;DHT22;52627;48.838;2.402;2023-09-07T15:24:50;34.58;31.91
65854;DHT22;52627;48.838;2.402;2023-09-07T15:27:17;34.60;31.92
65854;DHT22;52627;48.838;2.402;2023-09-07T15:29:45;34.63;31.86
65854;DHT22;52627;48.838;2.402;2023-09-07T15:32:12;34.52;31.86
65854;DHT22;52627;48.838;2.402;2023-09-07T15:34:40;34.40;31.95
65854;DHT22;52627;48.838;2.402;2023-09-07T15:37:08;34.35;32.01
65854;DHT22;52627;48.838;2.402;2023-09-07T15:39:35;34.36;32.01
65854;DHT22;52627;48.838;2.402;2023-09-07T15:42:03;34.37;32.09